createdAt,value
2019-05-05T00:00:35.259Z,1010.54
2019-05-05T00:01:35.049Z,1010.53
2019-05-05T00:02:35.059Z,1010.51
2019-05-05T00:03:35.024Z,1010.51
2019-05-05T00:04:35.016Z,1010.53
2019-05-05T00:05:35.419Z,1010.52
2019-05-05T00:06:34.991Z,1010.52
2019-05-05T00:07:35.003Z,1010.52
2019-05-05T00:08:35.199Z,1010.57
2019-05-05T00:09:34.965Z,1010.52
2019-05-05T00:10:34.946Z,1010.56
2019-05-05T00:11:35.234Z,1010.52
2019-05-05T00:12:34.954Z,1010.59
2019-05-05T00:13:34.911Z,1010.62
2019-05-05T00:14:35.155Z,1010.59
2019-05-05T00:15:34.892Z,1010.60
2019-05-05T00:16:35.098Z,1010.57
2019-05-05T00:17:34.877Z,1010.61
2019-05-05T00:18:34.879Z,1010.56
2019-05-05T00:19:35.865Z,1010.59
2019-05-05T00:20:34.836Z,1010.64
2019-05-05T00:21:34.830Z,1010.60
2019-05-05T00:22:35.063Z,1010.60
2019-05-05T00:23:34.829Z,1010.63
2019-05-05T00:24:35.158Z,1010.64
2019-05-05T00:25:34.779Z,1010.64
2019-05-05T00:26:34.981Z,1010.67
2019-05-05T00:27:34.783Z,1010.70
2019-05-05T00:28:35.368Z,1010.69
2019-05-05T00:29:34.830Z,1010.68
2019-05-05T00:30:34.724Z,1010.71
2019-05-05T00:31:34.989Z,1010.65
2019-05-05T00:32:34.950Z,1010.67
2019-05-05T00:33:34.721Z,1010.66
2019-05-05T00:34:35.045Z,1010.73
2019-05-05T00:35:34.670Z,1010.70
2019-05-05T00:36:35.215Z,1010.71
2019-05-05T00:37:34.682Z,1010.76
2019-05-05T00:38:35.328Z,1010.68
2019-05-05T00:39:34.641Z,1010.73
2019-05-05T00:40:35.308Z,1010.73
2019-05-05T00:41:34.731Z,1010.74
2019-05-05T00:42:35.220Z,1010.76
2019-05-05T00:43:34.681Z,1010.78
2019-05-05T00:44:35.195Z,1010.70
2019-05-05T00:45:34.558Z,1010.75
2019-05-05T00:46:35.161Z,1010.81
2019-05-05T00:47:34.541Z,1010.81
2019-05-05T00:48:35.108Z,1010.77
2019-05-05T00:49:45.571Z,1010.82
2019-05-05T00:50:35.499Z,1010.83
2019-05-05T00:51:34.901Z,1010.88
2019-05-05T00:52:35.176Z,1010.90
2019-05-05T00:53:34.495Z,1010.91
2019-05-05T00:54:34.793Z,1010.88
2019-05-05T00:55:35.040Z,1010.87
2019-05-05T00:56:34.435Z,1010.87
2019-05-05T00:57:34.828Z,1010.93
2019-05-05T00:58:35.315Z,1010.84
2019-05-05T00:59:34.892Z,1010.90
2019-05-05T01:00:34.955Z,1010.88
2019-05-05T01:01:34.386Z,1010.94
2019-05-05T01:02:34.476Z,1010.88
2019-05-05T01:03:34.863Z,1010.89
2019-05-05T01:04:35.209Z,1010.90
2019-05-05T01:05:34.472Z,1010.91
2019-05-05T01:06:34.597Z,1010.87
2019-05-05T01:07:35.045Z,1010.92
2019-05-05T01:08:35.311Z,1010.87
2019-05-05T01:09:34.507Z,1010.86
2019-05-05T01:10:35.285Z,1010.94
2019-05-05T01:11:35.528Z,1010.90
2019-05-05T01:12:34.849Z,1010.97
2019-05-05T01:13:35.133Z,1010.96
2019-05-05T01:14:34.349Z,1010.94
2019-05-05T01:15:34.593Z,1010.94
2019-05-05T01:16:35.177Z,1010.91
2019-05-05T01:17:34.589Z,1010.92
2019-05-05T01:18:35.159Z,1010.88
2019-05-05T01:19:34.980Z,1010.93
2019-05-05T01:20:34.419Z,1010.91
2019-05-05T01:21:34.865Z,1010.92
2019-05-05T01:22:34.275Z,1010.91
2019-05-05T01:23:34.940Z,1010.95
2019-05-05T01:24:34.321Z,1010.96
2019-05-05T01:25:34.717Z,1011.00
2019-05-05T01:26:35.419Z,1011.00
2019-05-05T01:27:34.767Z,1011.00
2019-05-05T01:28:35.583Z,1010.91
2019-05-05T01:29:34.620Z,1010.93
2019-05-05T01:30:35.084Z,1010.99
2019-05-05T01:31:34.656Z,1010.98
2019-05-05T01:32:35.149Z,1011.00
2019-05-05T01:33:34.442Z,1011.01
2019-05-05T01:34:34.855Z,1011.01
2019-05-05T01:35:34.307Z,1011.02
2019-05-05T01:36:34.549Z,1011.05
2019-05-05T01:37:34.838Z,1011.06
2019-05-05T01:38:34.301Z,1011.00
2019-05-05T01:39:34.570Z,1011.06
2019-05-05T01:40:35.341Z,1011.05
2019-05-05T01:41:34.794Z,1011.06
2019-05-05T01:42:35.270Z,1011.03
2019-05-05T01:43:34.628Z,1011.05
2019-05-05T01:44:35.207Z,1011.05
2019-05-05T01:45:34.753Z,1011.07
2019-05-05T01:46:35.292Z,1011.02
2019-05-05T01:47:34.698Z,1011.06
2019-05-05T01:48:35.103Z,1011.09
2019-05-05T01:49:34.506Z,1011.12
2019-05-05T01:50:34.931Z,1011.14
2019-05-05T01:51:35.458Z,1011.13
2019-05-05T01:52:34.442Z,1011.15
2019-05-05T01:53:34.957Z,1011.16
2019-05-05T01:54:35.286Z,1011.16
2019-05-05T01:55:34.744Z,1011.18
2019-05-05T01:56:35.219Z,1011.17
2019-05-05T01:57:34.457Z,1011.16
2019-05-05T01:58:34.906Z,1011.16
2019-05-05T01:59:35.370Z,1011.16
2019-05-05T02:00:34.852Z,1011.16
2019-05-05T02:01:35.214Z,1011.15
2019-05-05T02:02:34.241Z,1011.17
2019-05-05T02:03:35.000Z,1011.17
2019-05-05T02:04:34.260Z,1011.15
2019-05-05T02:05:34.855Z,1011.16
2019-05-05T02:06:34.978Z,1011.19
2019-05-05T02:07:34.222Z,1011.14
2019-05-05T02:08:34.932Z,1011.12
2019-05-05T02:09:35.398Z,1011.11
2019-05-05T02:10:34.847Z,1011.12
2019-05-05T02:11:35.288Z,1011.15
2019-05-05T02:12:35.300Z,1011.12
2019-05-05T02:13:34.697Z,1011.10
2019-05-05T02:14:35.172Z,1011.10
2019-05-05T02:15:34.340Z,1011.12
2019-05-05T02:16:34.728Z,1011.11
2019-05-05T02:17:35.260Z,1011.13
2019-05-05T02:18:34.552Z,1011.07
2019-05-05T02:19:35.066Z,1011.09
2019-05-05T02:20:34.275Z,1011.12
2019-05-05T02:21:35.284Z,1011.11
2019-05-05T02:22:35.558Z,1011.10
2019-05-05T02:23:35.188Z,1011.08
2019-05-05T02:24:35.361Z,1011.08
2019-05-05T02:25:34.580Z,1011.11
2019-05-05T02:26:35.040Z,1011.12
2019-05-05T02:27:34.325Z,1011.12
2019-05-05T02:28:34.733Z,1011.14
2019-05-05T02:29:35.226Z,1011.17
2019-05-05T02:30:35.899Z,1011.13
2019-05-05T02:31:35.936Z,1011.12
2019-05-05T02:32:36.049Z,1011.14
2019-05-05T02:33:35.361Z,1011.16
2019-05-05T02:34:35.666Z,1011.21
2019-05-05T02:35:35.320Z,1011.24
2019-05-05T02:36:35.502Z,1011.25
2019-05-05T02:37:35.714Z,1011.21
2019-05-05T02:38:35.498Z,1011.18
2019-05-05T02:39:35.241Z,1011.23
2019-05-05T02:40:35.022Z,1011.21
2019-05-05T02:41:34.823Z,1011.25
2019-05-05T02:42:35.461Z,1011.23
2019-05-05T02:43:34.454Z,1011.23
2019-05-05T02:44:34.749Z,1011.24
2019-05-05T02:45:35.258Z,1011.24
2019-05-05T02:46:35.723Z,1011.26
2019-05-05T02:47:34.905Z,1011.28
2019-05-05T02:48:35.508Z,1011.26
2019-05-05T02:49:35.182Z,1011.28
2019-05-05T02:50:50.444Z,1011.33
2019-05-05T02:51:35.510Z,1011.27
2019-05-05T02:52:34.698Z,1011.33
2019-05-05T02:53:34.013Z,1011.32
2019-05-05T02:54:33.888Z,1011.29
2019-05-05T02:55:34.789Z,1011.34
2019-05-05T02:56:34.188Z,1011.40
2019-05-05T02:57:34.546Z,1011.40
2019-05-05T02:58:34.007Z,1011.39
2019-05-05T02:59:35.171Z,1011.42
2019-05-05T03:00:34.459Z,1011.41
2019-05-05T03:01:34.128Z,1011.42
2019-05-05T03:02:35.173Z,1011.37
2019-05-05T03:03:34.363Z,1011.39
2019-05-05T03:04:33.624Z,1011.34
2019-05-05T03:05:34.101Z,1011.38
2019-05-05T03:06:34.285Z,1011.39
2019-05-05T03:07:34.442Z,1011.36
2019-05-05T03:08:33.591Z,1011.38
2019-05-05T03:09:34.690Z,1011.43
2019-05-05T03:10:33.967Z,1011.43
2019-05-05T03:11:34.365Z,1011.46
2019-05-05T03:12:34.640Z,1011.42
2019-05-05T03:13:33.699Z,1011.43
2019-05-05T03:14:34.109Z,1011.39
2019-05-05T03:15:33.646Z,1011.46
2019-05-05T03:16:34.114Z,1011.47
2019-05-05T03:17:34.086Z,1011.48
2019-05-05T03:18:33.821Z,1011.37
2019-05-05T03:19:33.909Z,1011.35
2019-05-05T03:20:34.349Z,1011.42
2019-05-05T03:21:33.506Z,1011.42
2019-05-05T03:22:34.103Z,1011.41
2019-05-05T03:23:33.432Z,1011.47
2019-05-05T03:24:34.139Z,1011.45
2019-05-05T03:25:33.407Z,1011.46
2019-05-05T03:26:34.034Z,1011.48
2019-05-05T03:27:34.107Z,1011.52
2019-05-05T03:28:34.433Z,1011.46
2019-05-05T03:29:33.618Z,1011.50
2019-05-05T03:30:35.619Z,1011.56
2019-05-05T03:31:35.228Z,1011.52
2019-05-05T03:32:35.725Z,1011.55
2019-05-05T03:33:35.163Z,1011.53
2019-05-05T03:34:34.335Z,1011.53
2019-05-05T03:35:34.443Z,1011.57
2019-05-05T03:36:33.941Z,1011.60
2019-05-05T03:37:34.340Z,1011.53
2019-05-05T03:38:33.699Z,1011.59
2019-05-05T03:39:33.996Z,1011.57
2019-05-05T03:40:34.386Z,1011.60
2019-05-05T03:41:34.454Z,1011.66
2019-05-05T03:42:33.825Z,1011.61
2019-05-05T03:43:34.253Z,1011.58
2019-05-05T03:44:33.574Z,1011.63
2019-05-05T03:45:34.174Z,1011.57
2019-05-05T03:46:34.357Z,1011.66
2019-05-05T03:47:33.730Z,1011.64
2019-05-05T03:48:34.529Z,1011.67
2019-05-05T03:49:33.806Z,1011.67
2019-05-05T03:50:34.090Z,1011.65
2019-05-05T03:51:34.433Z,1011.66
2019-05-05T03:52:34.542Z,1011.70
2019-05-05T03:53:33.782Z,1011.73
2019-05-05T03:54:34.239Z,1011.75
2019-05-05T03:55:34.020Z,1011.76
2019-05-05T03:56:34.548Z,1011.76
2019-05-05T03:57:33.908Z,1011.78
2019-05-05T03:58:34.394Z,1011.83
2019-05-05T03:59:33.529Z,1011.87
2019-05-05T04:00:34.020Z,1011.86
2019-05-05T04:01:34.464Z,1011.86
2019-05-05T04:02:34.074Z,1011.86
2019-05-05T04:03:34.051Z,1011.87
2019-05-05T04:04:33.566Z,1011.87
2019-05-05T04:05:34.026Z,1011.89
2019-05-05T04:06:33.975Z,1011.87
2019-05-05T04:07:33.485Z,1011.86
2019-05-05T04:08:33.914Z,1011.86
2019-05-05T04:09:33.976Z,1011.89
2019-05-05T04:10:33.513Z,1011.87
2019-05-05T04:11:33.818Z,1011.93
2019-05-05T04:12:34.446Z,1011.91
2019-05-05T04:13:34.049Z,1011.90
2019-05-05T04:14:34.580Z,1011.93
2019-05-05T04:15:33.692Z,1011.91
2019-05-05T04:16:34.144Z,1011.89
2019-05-05T04:17:33.662Z,1011.92
2019-05-05T04:18:34.083Z,1011.91
2019-05-05T04:19:34.161Z,1011.93
2019-05-05T04:20:33.717Z,1011.91
2019-05-05T04:21:34.495Z,1011.91
2019-05-05T04:22:34.182Z,1011.96
2019-05-05T04:23:33.503Z,1012.02
2019-05-05T04:24:34.018Z,1012.00
2019-05-05T04:25:32.124Z,1012.04
2019-05-05T04:26:33.524Z,1012.01
2019-05-05T04:27:34.173Z,1012.06
2019-05-05T04:28:32.093Z,1011.99
2019-05-05T04:29:34.299Z,1012.05
2019-05-05T04:30:33.812Z,1012.09
2019-05-05T04:31:32.057Z,1012.04
2019-05-05T04:32:32.048Z,1012.01
2019-05-05T04:33:34.038Z,1012.08
2019-05-05T04:34:32.048Z,1012.06
2019-05-05T04:35:33.998Z,1012.05
2019-05-05T04:36:33.912Z,1012.09
2019-05-05T04:37:34.024Z,1012.10
2019-05-05T04:38:31.979Z,1012.12
2019-05-05T04:39:34.119Z,1012.11
2019-05-05T04:40:31.983Z,1012.14
2019-05-05T04:41:33.775Z,1012.07
2019-05-05T04:42:33.684Z,1012.05
2019-05-05T04:43:33.785Z,1012.07
2019-05-05T04:44:33.988Z,1012.07
2019-05-05T04:45:31.928Z,1012.14
2019-05-05T04:46:33.783Z,1012.08
2019-05-05T04:47:31.885Z,1012.10
2019-05-05T04:48:31.872Z,1012.09
2019-05-05T04:49:33.929Z,1012.12
2019-05-05T04:50:31.871Z,1012.13
2019-05-05T04:51:44.830Z,1012.15
2019-05-05T04:52:34.339Z,1012.13
2019-05-05T04:53:31.821Z,1012.18
2019-05-05T04:54:33.474Z,1012.17
2019-05-05T04:55:33.658Z,1012.15
2019-05-05T04:56:34.118Z,1012.21
2019-05-05T04:57:31.771Z,1012.19
2019-05-05T04:58:33.581Z,1012.18
2019-05-05T04:59:33.873Z,1012.22
2019-05-05T05:00:31.761Z,1012.24
2019-05-05T05:01:33.579Z,1012.25
2019-05-05T05:02:31.717Z,1012.22
2019-05-05T05:03:31.706Z,1012.22
2019-05-05T05:04:33.587Z,1012.29
2019-05-05T05:05:33.637Z,1012.24
2019-05-05T05:06:31.671Z,1012.27
2019-05-05T05:07:31.661Z,1012.29
2019-05-05T05:08:33.678Z,1012.29
2019-05-05T05:09:31.640Z,1012.35
2019-05-05T05:10:31.629Z,1012.33
2019-05-05T05:11:33.231Z,1012.35
2019-05-05T05:12:31.606Z,1012.35
2019-05-05T05:13:31.594Z,1012.38
2019-05-05T05:14:33.556Z,1012.40
2019-05-05T05:15:31.576Z,1012.48
2019-05-05T05:16:31.586Z,1012.44
2019-05-05T05:17:33.705Z,1012.46
2019-05-05T05:18:31.541Z,1012.41
2019-05-05T05:19:33.403Z,1012.50
2019-05-05T05:20:31.517Z,1012.44
2019-05-05T05:21:31.529Z,1012.42
2019-05-05T05:22:33.337Z,1012.45
2019-05-05T05:23:31.487Z,1012.47
2019-05-05T05:24:31.475Z,1012.48
2019-05-05T05:25:31.461Z,1012.50
2019-05-05T05:26:33.470Z,1012.55
2019-05-05T05:27:33.426Z,1012.51
2019-05-05T05:28:31.436Z,1012.52
2019-05-05T05:29:31.419Z,1012.56
2019-05-05T05:30:31.408Z,1012.57
2019-05-05T05:31:33.621Z,1012.58
2019-05-05T05:32:31.385Z,1012.60
2019-05-05T05:33:31.374Z,1012.61
2019-05-05T05:34:31.363Z,1012.63
2019-05-05T05:35:33.451Z,1012.56
2019-05-05T05:36:31.364Z,1012.58
2019-05-05T05:37:31.329Z,1012.60
2019-05-05T05:38:31.318Z,1012.62
2019-05-05T05:39:33.439Z,1012.72
2019-05-05T05:40:31.298Z,1012.68
2019-05-05T05:41:31.309Z,1012.72
2019-05-05T05:42:33.448Z,1012.68
2019-05-05T05:43:33.412Z,1012.72
2019-05-05T05:44:31.253Z,1012.71
2019-05-05T05:45:31.241Z,1012.73
2019-05-05T05:46:32.965Z,1012.74
2019-05-05T05:47:31.245Z,1012.72
2019-05-05T05:48:31.211Z,1012.75
2019-05-05T05:49:31.197Z,1012.81
2019-05-05T05:50:31.185Z,1012.82
2019-05-05T05:51:31.179Z,1012.84
2019-05-05T05:52:31.189Z,1012.86
2019-05-05T05:53:31.155Z,1012.83
2019-05-05T05:54:31.145Z,1012.80
2019-05-05T05:55:31.131Z,1012.86
2019-05-05T05:56:31.119Z,1012.91
2019-05-05T05:57:31.134Z,1012.90
2019-05-05T05:58:31.097Z,1012.93
2019-05-05T05:59:31.087Z,1012.93
2019-05-05T06:00:31.077Z,1012.91
2019-05-05T06:01:31.068Z,1012.91
2019-05-05T06:02:31.078Z,1012.90
2019-05-05T06:03:31.042Z,1012.88
2019-05-05T06:04:31.031Z,1012.95
2019-05-05T06:05:31.022Z,1012.96
2019-05-05T06:06:31.012Z,1012.98
2019-05-05T06:07:31.024Z,1013.03
2019-05-05T06:08:30.988Z,1012.97
2019-05-05T06:09:30.978Z,1013.03
2019-05-05T06:10:30.968Z,1013.02
2019-05-05T06:11:30.954Z,1013.03
2019-05-05T06:12:30.946Z,1013.02
2019-05-05T06:13:30.957Z,1013.04
2019-05-05T06:14:30.924Z,1013.03
2019-05-05T06:15:30.912Z,1013.07
2019-05-05T06:16:30.898Z,1013.02
2019-05-05T06:17:30.889Z,1013.04
2019-05-05T06:18:30.907Z,1012.97
2019-05-05T06:19:30.869Z,1012.96
2019-05-05T06:20:30.866Z,1012.98
2019-05-05T06:21:30.854Z,1012.97
2019-05-05T06:22:31.551Z,1012.96
2019-05-05T06:23:30.848Z,1012.96
2019-05-05T06:24:30.811Z,1012.92
2019-05-05T06:25:30.799Z,1012.90
2019-05-05T06:26:30.789Z,1012.92
2019-05-05T06:27:30.778Z,1012.92
2019-05-05T06:28:30.790Z,1012.92
2019-05-05T06:29:30.757Z,1012.91
2019-05-05T06:30:30.745Z,1012.99
2019-05-05T06:31:30.737Z,1012.95
2019-05-05T06:32:30.723Z,1013.00
2019-05-05T06:33:30.737Z,1013.09
2019-05-05T06:34:30.704Z,1013.07
2019-05-05T06:35:30.693Z,1013.08
2019-05-05T06:36:30.678Z,1013.00
2019-05-05T06:37:30.665Z,1013.11
2019-05-05T06:38:30.679Z,1013.04
2019-05-05T06:39:30.644Z,1013.13
2019-05-05T06:40:30.632Z,1013.10
2019-05-05T06:41:30.622Z,1013.09
2019-05-05T06:42:30.611Z,1013.14
2019-05-05T06:43:30.627Z,1013.18
2019-05-05T06:44:30.591Z,1013.13
2019-05-05T06:45:30.579Z,1013.12
2019-05-05T06:46:30.567Z,1013.18
2019-05-05T06:47:30.555Z,1013.16
2019-05-05T06:48:30.576Z,1013.15
2019-05-05T06:49:31.349Z,1013.16
2019-05-05T06:50:30.521Z,1013.15
2019-05-05T06:51:30.512Z,1013.12
2019-05-05T06:52:41.915Z,1013.13
2019-05-05T06:53:31.516Z,1013.15
2019-05-05T06:54:30.476Z,1013.17
2019-05-05T06:55:30.467Z,1013.12
2019-05-05T06:56:30.455Z,1013.15
2019-05-05T06:57:30.447Z,1013.18
2019-05-05T06:58:30.456Z,1013.17
2019-05-05T06:59:30.420Z,1013.18
2019-05-05T07:00:30.413Z,1013.18
2019-05-05T07:01:30.400Z,1013.17
2019-05-05T07:02:30.389Z,1013.18
2019-05-05T07:03:30.403Z,1013.18
2019-05-05T07:04:30.371Z,1013.23
2019-05-05T07:05:30.355Z,1013.22
2019-05-05T07:06:30.344Z,1013.21
2019-05-05T07:07:30.332Z,1013.25
2019-05-05T07:08:30.348Z,1013.24
2019-05-05T07:09:30.310Z,1013.24
2019-05-05T07:10:30.300Z,1013.27
2019-05-05T07:11:30.292Z,1013.23
2019-05-05T07:12:30.281Z,1013.18
2019-05-05T07:13:30.267Z,1013.26
2019-05-05T07:14:30.278Z,1013.22
2019-05-05T07:15:30.243Z,1013.27
2019-05-05T07:16:30.233Z,1013.28
2019-05-05T07:17:30.222Z,1013.29
2019-05-05T07:18:30.216Z,1013.25
2019-05-05T07:19:30.227Z,1013.29
2019-05-05T07:20:30.189Z,1013.29
2019-05-05T07:21:30.178Z,1013.31
2019-05-05T07:22:30.165Z,1013.29
2019-05-05T07:23:30.158Z,1013.27
2019-05-05T07:24:30.169Z,1013.35
2019-05-05T07:25:42.184Z,1013.29
2019-05-05T07:26:31.121Z,1013.29
2019-05-05T07:27:30.110Z,1013.32
2019-05-05T07:28:30.098Z,1013.29
2019-05-05T07:29:30.114Z,1013.24
2019-05-05T07:30:30.077Z,1013.19
2019-05-05T07:31:30.065Z,1013.21
2019-05-05T07:32:30.054Z,1013.22
2019-05-05T07:33:30.043Z,1013.23
2019-05-05T07:34:30.055Z,1013.18
2019-05-05T07:35:30.022Z,1013.22
2019-05-05T07:36:30.011Z,1013.25
2019-05-05T07:37:30.002Z,1013.19
2019-05-05T07:38:29.988Z,1013.23
2019-05-05T07:39:30.003Z,1013.23
2019-05-05T07:40:29.966Z,1013.21
2019-05-05T07:41:29.954Z,1013.24
2019-05-05T07:42:29.942Z,1013.25
2019-05-05T07:43:29.931Z,1013.28
2019-05-05T07:44:29.961Z,1013.31
2019-05-05T07:45:29.911Z,1013.29
2019-05-05T07:46:29.901Z,1013.30
2019-05-05T07:47:29.890Z,1013.31
2019-05-05T07:48:29.875Z,1013.28
2019-05-05T07:49:29.892Z,1013.28
2019-05-05T07:50:32.573Z,1013.27
2019-05-05T07:51:30.845Z,1013.33
2019-05-05T07:52:29.833Z,1013.32
2019-05-05T07:53:29.824Z,1013.37
2019-05-05T07:54:29.835Z,1013.35
2019-05-05T07:55:29.800Z,1013.42
2019-05-05T07:56:29.788Z,1013.43
2019-05-05T07:57:29.778Z,1013.41
2019-05-05T07:58:29.765Z,1013.40
2019-05-05T07:59:29.779Z,1013.41
2019-05-05T08:00:29.756Z,1013.42
2019-05-05T08:01:29.734Z,1013.41
2019-05-05T08:02:29.726Z,1013.43
2019-05-05T08:03:29.712Z,1013.42
2019-05-05T08:04:29.726Z,1013.44
2019-05-05T08:05:29.691Z,1013.44
2019-05-05T08:06:29.687Z,1013.47
2019-05-05T08:07:29.667Z,1013.46
2019-05-05T08:08:29.666Z,1013.46
2019-05-05T08:09:29.672Z,1013.45
2019-05-05T08:10:29.640Z,1013.46
2019-05-05T08:11:29.627Z,1013.50
2019-05-05T08:12:29.612Z,1013.55
2019-05-05T08:13:29.602Z,1013.53
2019-05-05T08:14:29.596Z,1013.47
2019-05-05T08:15:29.605Z,1013.54
2019-05-05T08:16:29.570Z,1013.50
2019-05-05T08:17:29.562Z,1013.42
2019-05-05T08:18:29.551Z,1013.51
2019-05-05T08:19:29.544Z,1013.49
2019-05-05T08:20:29.554Z,1013.55
2019-05-05T08:21:29.515Z,1013.54
2019-05-05T08:22:29.506Z,1013.51
2019-05-05T08:23:32.621Z,1013.46
2019-05-05T08:24:29.483Z,1013.49
2019-05-05T08:25:37.435Z,1013.46
2019-05-05T08:26:30.462Z,1013.52
2019-05-05T08:27:29.449Z,1013.51
2019-05-05T08:28:29.439Z,1013.53
2019-05-05T08:29:29.429Z,1013.53
2019-05-05T08:30:29.443Z,1013.58
2019-05-05T08:31:29.406Z,1013.56
2019-05-05T08:32:32.648Z,1013.56
2019-05-05T08:33:30.382Z,1013.54
2019-05-05T08:34:29.377Z,1013.56
2019-05-05T08:35:29.388Z,1013.56
2019-05-05T08:36:29.363Z,1013.58
2019-05-05T08:37:29.340Z,1013.63
2019-05-05T08:38:29.331Z,1013.58
2019-05-05T08:39:29.318Z,1013.52
2019-05-05T08:40:29.309Z,1013.55
2019-05-05T08:41:29.325Z,1013.52
2019-05-05T08:42:29.288Z,1013.56
2019-05-05T08:43:29.277Z,1013.51
2019-05-05T08:44:29.275Z,1013.51
2019-05-05T08:45:29.254Z,1013.47
2019-05-05T08:46:29.267Z,1013.50
2019-05-05T08:47:29.231Z,1013.51
2019-05-05T08:48:29.221Z,1013.51
2019-05-05T08:49:29.211Z,1013.53
2019-05-05T08:50:29.197Z,1013.49
2019-05-05T08:51:29.216Z,1013.56
2019-05-05T08:52:29.178Z,1013.50
2019-05-05T08:53:41.688Z,1013.50
2019-05-05T08:54:30.155Z,1013.46
2019-05-05T08:55:29.143Z,1013.50
2019-05-05T08:56:29.159Z,1013.49
2019-05-05T08:57:29.123Z,1013.42
2019-05-05T08:58:29.111Z,1013.49
2019-05-05T08:59:29.099Z,1013.46
2019-05-05T09:00:29.088Z,1013.48
2019-05-05T09:01:29.099Z,1013.37
2019-05-05T09:02:29.067Z,1013.41
2019-05-05T09:03:29.057Z,1013.42
2019-05-05T09:04:29.045Z,1013.43
2019-05-05T09:05:29.037Z,1013.41
2019-05-05T09:06:29.046Z,1013.42
2019-05-05T09:07:29.010Z,1013.38
2019-05-05T09:08:29.000Z,1013.36
2019-05-05T09:09:28.989Z,1013.35
2019-05-05T09:10:28.976Z,1013.39
2019-05-05T09:11:28.993Z,1013.44
2019-05-05T09:12:28.953Z,1013.47
2019-05-05T09:13:28.945Z,1013.41
2019-05-05T09:14:28.935Z,1013.43
2019-05-05T09:15:28.924Z,1013.49
2019-05-05T09:16:28.912Z,1013.45
2019-05-05T09:17:28.922Z,1013.50
2019-05-05T09:18:28.885Z,1013.50
2019-05-05T09:19:28.874Z,1013.50
2019-05-05T09:20:28.869Z,1013.46
2019-05-05T09:21:28.849Z,1013.52
2019-05-05T09:22:28.866Z,1013.49
2019-05-05T09:23:28.828Z,1013.50
2019-05-05T09:24:28.818Z,1013.55
2019-05-05T09:25:28.804Z,1013.54
2019-05-05T09:26:28.793Z,1013.50
2019-05-05T09:27:28.810Z,1013.47
2019-05-05T09:28:28.775Z,1013.49
2019-05-05T09:29:28.763Z,1013.50
2019-05-05T09:30:28.750Z,1013.47
2019-05-05T09:31:28.737Z,1013.48
2019-05-05T09:32:28.749Z,1013.50
2019-05-05T09:33:28.722Z,1013.45
2019-05-05T09:34:28.702Z,1013.47
2019-05-05T09:35:28.694Z,1013.45
2019-05-05T09:36:28.682Z,1013.32
2019-05-05T09:37:28.697Z,1013.38
2019-05-05T09:38:30.295Z,1013.35
2019-05-05T09:39:28.651Z,1013.36
2019-05-05T09:40:28.650Z,1013.35
2019-05-05T09:41:28.625Z,1013.32
2019-05-05T09:42:28.643Z,1013.29
2019-05-05T09:43:28.606Z,1013.34
2019-05-05T09:44:28.591Z,1013.32
2019-05-05T09:45:28.580Z,1013.34
2019-05-05T09:46:28.574Z,1013.39
2019-05-05T09:47:28.585Z,1013.30
2019-05-05T09:48:28.552Z,1013.35
2019-05-05T09:49:28.538Z,1013.37
2019-05-05T09:50:28.533Z,1013.34
2019-05-05T09:51:28.519Z,1013.39
2019-05-05T09:52:28.531Z,1013.39
2019-05-05T09:53:28.492Z,1013.40
2019-05-05T09:54:28.485Z,1013.37
2019-05-05T09:55:28.472Z,1013.43
2019-05-05T09:56:28.458Z,1013.35
2019-05-05T09:57:28.453Z,1013.33
2019-05-05T09:58:28.461Z,1013.36
2019-05-05T09:59:28.430Z,1013.32
2019-05-05T10:00:28.413Z,1013.37
2019-05-05T10:01:28.448Z,1013.29
2019-05-05T10:02:28.691Z,1013.28
2019-05-05T10:03:28.421Z,1013.27
2019-05-05T10:04:28.370Z,1013.33
2019-05-05T10:05:28.359Z,1013.31
2019-05-05T10:06:28.347Z,1013.34
2019-05-05T10:07:28.339Z,1013.20
2019-05-05T10:08:28.352Z,1013.23
2019-05-05T10:09:28.314Z,1013.20
2019-05-05T10:10:28.302Z,1013.22
2019-05-05T10:11:28.290Z,1013.24
2019-05-05T10:12:28.285Z,1013.31
2019-05-05T10:13:28.294Z,1013.20
2019-05-05T10:14:28.258Z,1013.22
2019-05-05T10:15:28.249Z,1013.22
2019-05-05T10:16:28.237Z,1013.32
2019-05-05T10:17:28.233Z,1013.34
2019-05-05T10:18:28.238Z,1013.27
2019-05-05T10:19:28.202Z,1013.32
2019-05-05T10:20:28.212Z,1013.26
2019-05-05T10:21:28.182Z,1013.27
2019-05-05T10:22:28.171Z,1013.38
2019-05-05T10:23:28.186Z,1013.38
2019-05-05T10:24:30.963Z,1013.43
2019-05-05T10:25:28.140Z,1013.37
2019-05-05T10:26:28.126Z,1013.46
2019-05-05T10:27:41.920Z,1013.56
2019-05-05T10:28:29.126Z,1013.52
2019-05-05T10:29:28.092Z,1013.52
2019-05-05T10:30:28.083Z,1013.49
2019-05-05T10:31:28.067Z,1013.52
2019-05-05T10:32:28.058Z,1013.42
2019-05-05T10:33:28.071Z,1013.60
2019-05-05T10:34:28.034Z,1013.51
2019-05-05T10:35:28.025Z,1013.46
2019-05-05T10:36:28.025Z,1013.41
2019-05-05T10:37:28.001Z,1013.32
2019-05-05T10:38:28.017Z,1013.37
2019-05-05T10:39:27.980Z,1013.41
2019-05-05T10:40:27.970Z,1013.41
2019-05-05T10:41:27.960Z,1013.45
2019-05-05T10:42:27.946Z,1013.40
2019-05-05T10:43:27.959Z,1013.39
2019-05-05T10:44:27.930Z,1013.49
2019-05-05T10:45:27.910Z,1013.45
2019-05-05T10:46:27.900Z,1013.47
2019-05-05T10:47:27.889Z,1013.49
2019-05-05T10:48:27.886Z,1013.46
2019-05-05T10:49:27.894Z,1013.48
2019-05-05T10:50:27.856Z,1013.48
2019-05-05T10:51:27.845Z,1013.54
2019-05-05T10:52:27.834Z,1013.53
2019-05-05T10:53:27.827Z,1013.53
2019-05-05T10:54:40.576Z,1013.51
2019-05-05T10:55:28.799Z,1013.50
2019-05-05T10:56:27.788Z,1013.53
2019-05-05T10:57:27.778Z,1013.58
2019-05-05T10:58:27.766Z,1013.48
2019-05-05T10:59:27.784Z,1013.53
2019-05-05T11:00:27.742Z,1013.51
2019-05-05T11:01:27.732Z,1013.46
2019-05-05T11:02:27.723Z,1013.46
2019-05-05T11:03:27.711Z,1013.48
2019-05-05T11:04:27.728Z,1013.48
2019-05-05T11:05:27.688Z,1013.50
2019-05-05T11:06:27.678Z,1013.56
2019-05-05T11:07:27.664Z,1013.43
2019-05-05T11:08:30.531Z,1013.46
2019-05-05T11:09:27.669Z,1013.54
2019-05-05T11:10:27.635Z,1013.37
2019-05-05T11:11:27.621Z,1013.31
2019-05-05T11:12:27.616Z,1013.37
2019-05-05T11:13:27.599Z,1013.37
2019-05-05T11:14:27.614Z,1013.43
2019-05-05T11:15:27.582Z,1013.43
2019-05-05T11:16:27.567Z,1013.38
2019-05-05T11:17:27.553Z,1013.55
2019-05-05T11:18:27.544Z,1013.53
2019-05-05T11:19:27.567Z,1013.36
2019-05-05T11:20:27.525Z,1013.41
2019-05-05T11:21:27.510Z,1013.43
2019-05-05T11:22:27.500Z,1013.41
2019-05-05T11:23:27.488Z,1013.48
2019-05-05T11:24:27.502Z,1013.53
2019-05-05T11:25:27.466Z,1013.52
2019-05-05T11:26:27.454Z,1013.60
2019-05-05T11:27:27.445Z,1013.50
2019-05-05T11:28:27.432Z,1013.47
2019-05-05T11:29:27.433Z,1013.49
2019-05-05T11:30:27.432Z,1013.42
2019-05-05T11:31:27.396Z,1013.38
2019-05-05T11:32:27.412Z,1013.45
2019-05-05T11:33:27.375Z,1013.38
2019-05-05T11:34:27.372Z,1013.33
2019-05-05T11:35:27.376Z,1013.37
2019-05-05T11:36:27.342Z,1013.35
2019-05-05T11:37:27.330Z,1013.38
2019-05-05T11:38:27.320Z,1013.44
2019-05-05T11:39:27.314Z,1013.38
2019-05-05T11:40:27.328Z,1013.46
2019-05-05T11:41:27.286Z,1013.40
2019-05-05T11:42:27.277Z,1013.34
2019-05-05T11:43:27.263Z,1013.36
2019-05-05T11:44:27.251Z,1013.32
2019-05-05T11:45:27.289Z,1013.34
2019-05-05T11:46:27.230Z,1013.33
2019-05-05T11:47:27.219Z,1013.35
2019-05-05T11:48:27.213Z,1013.39
2019-05-05T11:49:27.197Z,1013.41
2019-05-05T11:50:27.214Z,1013.43
2019-05-05T11:51:27.176Z,1013.42
2019-05-05T11:52:27.164Z,1013.35
2019-05-05T11:53:27.153Z,1013.41
2019-05-05T11:54:27.141Z,1013.45
2019-05-05T11:55:27.157Z,1013.42
2019-05-05T11:56:27.119Z,1013.50
2019-05-05T11:57:27.109Z,1013.45
2019-05-05T11:58:27.096Z,1013.48
2019-05-05T11:59:27.086Z,1013.47
2019-05-05T12:00:27.100Z,1013.43
2019-05-05T12:01:27.067Z,1013.41
2019-05-05T12:02:27.054Z,1013.40
2019-05-05T12:03:27.040Z,1013.37
2019-05-05T12:04:27.028Z,1013.40
2019-05-05T12:05:27.020Z,1013.40